createdAt,value
2023-01-19T00:00:52.658Z,-5.65
2023-01-19T00:03:19.339Z,-5.64
2023-01-19T00:05:46.164Z,-5.63
2023-01-19T00:08:15.999Z,-5.65
2023-01-19T00:10:46.737Z,-5.62
2023-01-19T00:13:14.132Z,-5.62
2023-01-19T00:15:41.043Z,-5.60
2023-01-19T00:18:09.694Z,-5.58
2023-01-19T00:20:37.706Z,-5.57
2023-01-19T00:23:04.855Z,-5.61
2023-01-19T00:25:31.868Z,-5.63
2023-01-19T00:28:01.383Z,-5.58
2023-01-19T00:30:28.925Z,-5.62
2023-01-19T00:32:55.774Z,-5.64
2023-01-19T00:35:22.406Z,-5.62
2023-01-19T00:37:49.028Z,-5.64
2023-01-19T00:40:16.012Z,-5.67
2023-01-19T00:42:45.537Z,-5.72
2023-01-19T00:45:14.607Z,-5.67
2023-01-19T00:47:42.188Z,-5.65
2023-01-19T00:50:13.197Z,-5.64
2023-01-19T00:52:45.219Z,-5.59
2023-01-19T00:55:14.424Z,-5.67
2023-01-19T00:57:41.629Z,-5.64
2023-01-19T01:00:12.219Z,-5.68
2023-01-19T01:02:40.447Z,-5.67
2023-01-19T01:05:08.691Z,-5.85
2023-01-19T01:07:42.216Z,-5.72
2023-01-19T01:10:23.907Z,-5.75
2023-01-19T01:12:55.133Z,-5.80
2023-01-19T01:15:37.617Z,-5.83
2023-01-19T01:18:04.229Z,-5.84
2023-01-19T01:20:33.120Z,-5.79
2023-01-19T01:23:00.069Z,-5.77
2023-01-19T01:25:29.263Z,-5.77
2023-01-19T01:27:55.881Z,-5.80
2023-01-19T01:30:23.328Z,-5.74
2023-01-19T01:32:51.253Z,-5.78
2023-01-19T01:35:17.964Z,-5.73
2023-01-19T01:37:44.644Z,-5.76
2023-01-19T01:40:16.785Z,-5.90
2023-01-19T01:42:44.184Z,-5.78
2023-01-19T01:45:26.598Z,-5.74
2023-01-19T01:47:55.514Z,-5.80
2023-01-19T01:50:26.834Z,-5.73
2023-01-19T01:53:07.566Z,-5.89
2023-01-19T01:55:40.977Z,-5.76
2023-01-19T01:58:10.175Z,-5.76
2023-01-19T02:00:56.824Z,-5.67
2023-01-19T02:03:25.223Z,-5.66
2023-01-19T02:05:53.872Z,-5.66
2023-01-19T02:08:48.049Z,-5.54
2023-01-19T02:11:33.228Z,-5.62
2023-01-19T02:14:00.652Z,-5.63
2023-01-19T02:16:27.275Z,-5.55
2023-01-19T02:18:53.880Z,-5.46
2023-01-19T02:21:24.358Z,-5.42
2023-01-19T02:23:52.347Z,-5.68
2023-01-19T02:26:22.237Z,-5.46
2023-01-19T02:29:02.998Z,-5.54
2023-01-19T02:31:32.260Z,-5.60
2023-01-19T02:34:00.460Z,-5.51
2023-01-19T02:36:43.141Z,-5.47
2023-01-19T02:39:11.279Z,-5.48
2023-01-19T02:41:49.035Z,-5.49
2023-01-19T02:44:17.386Z,-5.60
2023-01-19T02:46:44.387Z,-5.54
2023-01-19T02:49:11.741Z,-5.52
2023-01-19T02:51:38.551Z,-5.82
2023-01-19T02:54:06.059Z,-5.63
2023-01-19T02:56:52.419Z,-5.61
2023-01-19T02:59:28.213Z,-5.51
2023-01-19T03:02:17.766Z,-5.47
2023-01-19T03:05:08.391Z,-5.47
2023-01-19T03:08:02.111Z,-5.45
2023-01-19T03:10:31.512Z,-5.46
2023-01-19T03:13:27.865Z,-5.50
2023-01-19T03:16:32.158Z,-5.54
2023-01-19T03:19:06.076Z,-5.58
2023-01-19T03:21:35.717Z,-5.61
2023-01-19T03:24:07.183Z,-5.59
2023-01-19T03:26:39.117Z,-5.61
2023-01-19T03:29:08.603Z,-5.62
2023-01-19T03:31:37.942Z,-5.75
2023-01-19T03:34:08.146Z,-5.70
2023-01-19T03:36:44.433Z,-5.74
2023-01-19T03:39:12.412Z,-5.68
2023-01-19T03:41:41.292Z,-5.68
2023-01-19T03:44:08.456Z,-5.74
2023-01-19T03:46:35.158Z,-5.62
2023-01-19T03:49:01.958Z,-5.70
2023-01-19T03:51:28.725Z,-5.69
2023-01-19T03:53:55.294Z,-5.70
2023-01-19T03:56:25.474Z,-5.88
2023-01-19T03:58:52.371Z,-5.81
2023-01-19T04:01:23.631Z,-5.69
2023-01-19T04:03:51.300Z,-5.71
2023-01-19T04:06:21.575Z,-5.68
2023-01-19T04:08:51.964Z,-5.88
2023-01-19T04:11:18.851Z,-5.73
2023-01-19T04:13:45.498Z,-5.83
2023-01-19T16:00:30.631Z,-2.68
2023-01-19T16:02:57.938Z,-2.62
2023-01-19T16:05:33.998Z,-2.52
2023-01-19T16:08:08.822Z,-2.40
2023-01-19T16:10:35.703Z,-2.38
2023-01-19T16:13:04.257Z,-2.54
2023-01-19T16:15:31.730Z,-2.15
2023-01-19T16:17:58.490Z,-2.07
2023-01-19T16:20:25.132Z,-2.17
2023-01-19T16:22:54.958Z,-2.03
2023-01-19T16:25:23.618Z,-2.00
2023-01-19T16:27:51.004Z,-1.86
2023-01-19T16:30:20.247Z,-1.86
2023-01-19T16:32:47.272Z,-1.76
2023-01-19T16:35:15.614Z,-1.70
2023-01-19T16:37:43.426Z,-1.65
2023-01-19T16:40:10.823Z,-1.74
2023-01-19T16:42:37.694Z,-1.61
2023-01-19T16:45:04.615Z,-1.57
2023-01-19T16:47:31.252Z,-1.59
2023-01-19T16:49:57.814Z,-1.57
2023-01-19T16:52:25.600Z,-1.67
2023-01-19T16:54:54.731Z,-1.64
2023-01-19T16:57:21.431Z,-1.61
2023-01-19T16:59:48.732Z,-1.60
2023-01-19T17:02:18.315Z,-1.56
2023-01-19T17:04:44.892Z,-1.59
2023-01-19T17:07:12.303Z,-1.61
2023-01-19T17:09:41.938Z,-1.48
2023-01-19T17:12:09.312Z,-1.45
2023-01-19T17:14:37.477Z,-1.57
2023-01-19T17:17:05.096Z,-1.54
2023-01-19T17:19:31.672Z,-1.38
2023-01-19T17:21:58.762Z,-1.39
2023-01-19T17:24:25.371Z,-1.38
2023-01-19T17:26:51.985Z,-1.34
2023-01-19T17:29:18.854Z,-1.24
2023-01-19T17:31:46.798Z,-1.24
2023-01-19T17:37:04.426Z,-1.12
2023-01-19T17:39:31.064Z,-1.12
2023-01-19T17:41:57.812Z,-1.13
2023-01-19T17:44:26.857Z,-1.12
2023-01-19T17:46:57.108Z,-1.15
2023-01-19T17:49:27.100Z,-1.16
2023-01-19T17:51:55.750Z,-0.97
2023-01-19T17:54:23.001Z,-0.94
2023-01-19T17:56:51.017Z,-0.91
2023-01-19T17:59:17.847Z,-1.11
2023-01-19T18:01:45.649Z,-0.89
2023-01-19T18:04:14.911Z,-0.91
2023-01-19T18:06:45.188Z,-0.95
2023-01-19T18:09:12.310Z,-0.82
2023-01-19T18:11:43.778Z,-0.78
2023-01-19T18:14:13.232Z,-0.85
2023-01-19T18:16:39.800Z,-0.80
2023-01-19T18:19:06.887Z,-0.79
2023-01-19T18:21:33.541Z,-1.00
2023-01-19T18:24:04.856Z,-0.86
2023-01-19T18:26:32.914Z,-0.87
2023-01-19T18:29:00.065Z,-0.83
2023-01-19T18:31:27.789Z,-0.77
2023-01-19T18:33:54.522Z,-0.90
2023-01-19T18:36:21.592Z,-1.10
2023-01-19T18:38:49.656Z,-1.14
2023-01-19T18:41:19.764Z,-1.14
2023-01-19T18:43:46.790Z,-1.22
2023-01-19T18:46:14.471Z,-1.22
2023-01-19T18:48:41.143Z,-1.32
2023-01-19T18:51:16.877Z,-1.19
2023-01-19T18:53:46.732Z,-1.17
2023-01-19T18:56:15.686Z,-1.05
2023-01-19T18:58:44.823Z,-1.03
2023-01-19T19:01:23.470Z,-1.03
2023-01-19T19:03:50.351Z,-1.00
2023-01-19T19:06:23.136Z,-0.92
2023-01-19T19:08:51.841Z,-0.93
2023-01-19T19:11:20.255Z,-0.79
2023-01-19T19:13:50.947Z,-0.85
2023-01-19T19:16:20.224Z,-0.86
2023-01-19T19:18:49.972Z,-0.91
2023-01-19T19:21:18.065Z,-0.90
2023-01-19T19:23:49.371Z,-0.88
2023-01-19T19:26:15.931Z,-0.82
2023-01-19T19:28:42.638Z,-0.84
2023-01-19T19:31:15.154Z,-0.98
2023-01-19T19:33:45.190Z,-1.28
2023-01-19T19:36:30.030Z,-0.72
2023-01-19T19:39:01.972Z,-0.71
2023-01-19T19:41:29.129Z,-0.67
2023-01-19T19:43:56.152Z,-0.72
2023-01-19T19:46:24.436Z,-0.79
2023-01-19T19:48:51.705Z,-0.71
2023-01-19T19:51:27.876Z,-0.69
2023-01-19T19:53:57.421Z,-0.63
2023-01-19T19:56:25.545Z,-0.70
2023-01-19T19:58:54.993Z,-0.59
2023-01-19T20:01:32.614Z,-1.20
2023-01-19T20:04:08.725Z,-0.96
2023-01-19T20:06:40.996Z,-0.61
2023-01-19T20:09:10.745Z,-0.56
2023-01-19T20:11:37.920Z,-0.46
2023-01-19T20:14:06.336Z,-0.50
2023-01-19T20:16:34.053Z,-0.49
2023-01-19T20:19:00.781Z,-0.49
2023-01-19T20:21:31.810Z,-0.46
2023-01-19T20:24:06.075Z,-0.39
2023-01-19T20:26:35.787Z,-0.30
2023-01-19T20:29:11.777Z,-0.35
2023-01-19T20:31:43.010Z,-0.31
2023-01-19T20:34:11.116Z,-0.33
2023-01-19T20:36:38.228Z,-0.40
2023-01-19T20:39:09.686Z,-0.33
2023-01-19T20:41:43.342Z,-0.22
2023-01-19T20:44:19.245Z,-0.27
2023-01-19T20:46:48.069Z,-0.27
2023-01-19T20:49:14.685Z,-0.49
2023-01-19T20:51:43.514Z,-0.19
2023-01-19T20:54:12.119Z,-0.19
2023-01-19T20:56:38.826Z,-0.50
2023-01-19T20:59:05.714Z,-0.21
2023-01-19T21:01:34.007Z,-0.29
2023-01-19T21:04:00.687Z,-0.32
2023-01-19T21:06:27.303Z,-0.31
2023-01-19T21:08:55.132Z,-0.29
2023-01-19T21:11:23.965Z,-0.36
2023-01-19T21:13:55.687Z,-0.25
2023-01-19T21:16:29.182Z,-0.22
2023-01-19T21:18:55.995Z,-0.30
2023-01-19T21:21:31.831Z,-0.42
2023-01-19T21:24:00.659Z,-0.30
2023-01-19T21:26:30.241Z,-0.25
2023-01-19T21:29:00.651Z,-0.25
2023-01-19T21:31:28.262Z,-0.26
2023-01-19T21:33:55.789Z,-0.24
2023-01-19T21:36:23.284Z,-0.26
2023-01-19T21:38:55.578Z,-0.30
2023-01-19T21:41:23.182Z,-0.32
2023-01-19T21:43:49.808Z,-0.44
2023-01-19T21:46:29.639Z,-0.54
2023-01-19T21:49:01.272Z,-0.42
2023-01-19T21:51:28.934Z,-0.40
2023-01-19T21:54:00.237Z,-0.55
2023-01-19T21:56:30.782Z,-0.39
2023-01-19T21:58:59.473Z,-0.37
2023-01-19T22:01:26.351Z,-0.50
2023-01-19T22:03:54.934Z,-0.34
2023-01-19T22:06:22.107Z,-0.41
2023-01-19T22:08:49.226Z,-0.32
2023-01-19T22:11:17.587Z,-0.27
2023-01-19T22:13:44.621Z,-0.28
2023-01-19T22:16:14.211Z,-0.53
2023-01-19T22:18:43.364Z,-0.26
2023-01-19T22:21:14.901Z,-0.25
2023-01-19T22:23:42.420Z,-0.23
2023-01-19T22:26:10.078Z,-0.22
2023-01-19T22:28:37.283Z,-0.22
2023-01-19T22:31:24.529Z,-0.25
2023-01-19T22:33:51.724Z,-0.14
2023-01-19T22:36:22.789Z,-0.15
2023-01-19T22:39:00.542Z,-0.19
2023-01-19T22:41:31.643Z,-0.20
2023-01-19T22:44:00.284Z,-0.17
2023-01-19T22:46:32.538Z,-0.19
2023-01-19T22:48:59.990Z,-0.20
2023-01-19T22:51:27.657Z,-0.12
2023-01-19T22:53:55.298Z,-0.13
2023-01-19T22:56:24.400Z,-0.10
2023-01-19T22:58:53.475Z,-0.09
2023-01-19T23:01:26.415Z,-0.08
2023-01-19T23:03:54.581Z,-0.11
2023-01-19T23:06:24.130Z,-0.08
2023-01-19T23:08:51.641Z,0.04
2023-01-19T23:11:21.002Z,0.06
2023-01-19T23:13:48.333Z,0.04
2023-01-19T23:16:15.664Z,0.09
2023-01-19T23:18:42.360Z,0.16
2023-01-19T23:21:14.873Z,0.03
2023-01-19T23:23:42.371Z,0.00
2023-01-19T23:26:10.527Z,0.05
2023-01-19T23:28:37.629Z,0.04
2023-01-19T23:31:17.928Z,0.09
2023-01-19T23:33:45.120Z,0.06
2023-01-19T23:36:13.072Z,0.03
2023-01-19T23:38:40.575Z,0.00
2023-01-19T23:41:07.681Z,0.03
2023-01-19T23:43:34.672Z,-0.03
2023-01-19T23:46:09.377Z,-0.06
2023-01-19T23:48:37.073Z,-0.03
2023-01-19T23:51:11.316Z,-0.04
2023-01-19T23:53:38.422Z,-0.08
2023-01-19T23:56:14.679Z,-0.02
2023-01-19T23:58:42.570Z,0.09
